Time;durP1;ratioP1;P1;durP2;ratioP2;P2;SDS_P1;SDS_P2;PMS_P1;PMS_P2;Temp;Humidity;BMP_temperature;BMP_pressure;BME280_temperature;BME280_humidity;BME280_pressure;Samples;Min_cycle;Max_cycle;Signal;HPM_P1;HPM_P2
2024/04/01 00:01:28;;;;;;;61.05;10.38;;;;;;;17.41;49.37;98168.16;4313830;33;33475;-91
2024/04/01 00:03:58;;;;;;;57.90;10.55;;;;;;;17.32;49.83;98163.22;4309412;33;34159;-93
2024/04/01 00:06:24;;;;;;;69.80;10.98;;;;;;;17.23;51.05;98159.09;4297890;33;33663;-96
2024/04/01 00:08:51;;;;;;;70.20;12.07;;;;;;;17.43;49.84;98167.22;4306825;33;33250;-94
2024/04/01 00:11:18;;;;;;;62.45;9.73;;;;;;;17.62;48.95;98158.78;4294481;33;33439;-90
2024/04/01 00:13:44;;;;;;;55.12;11.32;;;;;;;17.61;48.61;98157.03;4306419;33;33981;-89
2024/04/01 00:16:11;;;;;;;62.17;12.50;;;;;;;17.62;49.21;98145.69;4316138;33;35040;-91
2024/04/01 00:18:37;;;;;;;65.87;12.15;;;;;;;17.47;49.50;98145.25;4310991;33;33482;-91
2024/04/01 00:21:04;;;;;;;61.60;11.12;;;;;;;17.50;49.10;98152.12;4316455;33;33120;-90
2024/04/01 00:23:30;;;;;;;58.92;11.00;;;;;;;17.48;50.77;98149.56;4316877;33;33620;-91
2024/04/01 00:25:57;;;;;;;66.37;11.35;;;;;;;17.55;49.74;98149.41;4316835;33;34207;-91
2024/04/01 00:28:24;;;;;;;54.42;11.20;;;;;;;17.36;50.89;98138.63;4287297;33;33463;-90
2024/04/01 00:30:51;;;;;;;59.72;10.85;;;;;;;17.43;51.71;98141.00;4306566;33;33459;-96
2024/04/01 00:33:18;;;;;;;56.75;9.68;;;;;;;17.42;50.28;98143.66;4317312;33;34093;-93
2024/04/01 00:35:46;;;;;;;52.42;9.45;;;;;;;17.40;51.44;98140.25;4316415;33;33667;-90
2024/04/01 00:38:12;;;;;;;66.65;10.82;;;;;;;17.28;52.17;98151.97;4294698;33;33417;-91
2024/04/01 00:40:39;;;;;;;57.25;12.25;;;;;;;17.54;51.54;98148.53;4301525;33;33526;-90
2024/04/01 00:43:10;;;;;;;55.25;11.38;;;;;;;17.31;51.85;98146.59;4305284;33;34560;-91
2024/04/01 00:45:46;;;;;;;60.58;11.10;;;;;;;17.17;52.29;98151.44;4294148;33;34181;-88
2024/04/01 00:48:13;;;;;;;53.95;11.43;;;;;;;17.25;51.42;98146.81;4278712;33;33982;-93
2024/04/01 00:50:47;;;;;;;67.20;12.05;;;;;;;17.19;51.79;98139.97;4270811;33;33004;-90
2024/04/01 00:53:14;;;;;;;55.22;11.82;;;;;;;17.01;52.32;98140.56;4296522;33;32825;-90
2024/04/01 00:55:42;;;;;;;60.55;11.23;;;;;;;17.13;50.85;98141.97;4283100;33;34916;-91
2024/04/01 00:58:09;;;;;;;67.30;11.07;;;;;;;17.16;49.66;98131.34;4292765;33;33828;-92
2024/04/01 01:00:36;;;;;;;68.93;11.43;;;;;;;17.14;51.60;98133.19;4286494;33;34410;-89
2024/04/01 01:03:03;;;;;;;69.57;11.70;;;;;;;17.22;49.17;98136.44;4284271;33;35261;-91
2024/04/01 01:05:30;;;;;;;64.90;13.18;;;;;;;17.24;49.08;98118.91;4283266;33;34225;-90
2024/04/01 01:07:57;;;;;;;71.05;12.57;;;;;;;17.29;48.94;98117.00;4279671;33;34561;-90
2024/04/01 01:10:24;;;;;;;66.47;12.65;;;;;;;17.48;48.50;98106.78;4300953;33;34017;-92
2024/04/01 01:12:51;;;;;;;63.80;11.27;;;;;;;17.34;48.16;98103.75;4318665;33;33734;-92
2024/04/01 01:15:17;;;;;;;66.90;12.15;;;;;;;17.33;49.16;98100.28;4299008;33;34098;-92
2024/04/01 01:17:47;;;;;;;67.60;12.30;;;;;;;17.33;49.03;98097.66;4291128;33;33339;-89
2024/04/01 01:20:14;;;;;;;58.25;12.07;;;;;;;17.34;48.22;98098.50;4285227;33;34270;-89
2024/04/01 01:22:41;;;;;;;74.85;12.35;;;;;;;17.75;47.09;98089.34;4289961;33;34648;-90
2024/04/01 01:25:09;;;;;;;69.05;13.88;;;;;;;17.68;47.35;98087.78;4288070;33;33733;-91
2024/04/01 01:27:36;;;;;;;65.80;12.80;;;;;;;17.30;48.66;98092.50;4289676;33;33914;-90
2024/04/01 01:30:04;;;;;;;66.28;12.23;;;;;;;17.72;47.04;98097.28;4287310;33;33512;-90
2024/04/01 01:32:31;;;;;;;66.70;12.60;;;;;;;17.66;47.21;98089.63;4302367;33;33823;-91
2024/04/01 01:34:57;;;;;;;66.22;13.07;;;;;;;17.65;48.42;98108.84;4280510;33;34973;-90
2024/04/01 01:37:24;;;;;;;70.60;12.18;;;;;;;17.53;47.31;98089.16;4277350;33;34611;-90
2024/04/01 01:39:51;;;;;;;77.65;12.55;;;;;;;17.70;46.62;98094.72;4300737;33;33591;-89
2024/04/01 01:42:17;;;;;;;67.82;13.50;;;;;;;17.55;46.76;98091.75;4301862;33;33585;-89
2024/04/01 01:44:44;;;;;;;79.15;13.48;;;;;;;17.81;46.27;98086.53;4300864;33;33826;-89
2024/04/01 01:47:10;;;;;;;72.93;11.65;;;;;;;17.68;46.19;98085.19;4302688;33;32476;-91
2024/04/01 01:49:37;;;;;;;67.95;12.80;;;;;;;17.71;46.96;98074.59;4294970;33;33521;-90
2024/04/01 01:52:04;;;;;;;74.82;13.30;;;;;;;17.66;46.53;98074.75;4288495;33;34847;-90
2024/04/01 01:54:30;;;;;;;69.62;13.30;;;;;;;17.68;46.02;98078.16;4299326;33;33778;-95
2024/04/01 01:56:57;;;;;;;70.18;13.02;;;;;;;17.71;45.81;98071.97;4274324;33;34648;-91
2024/04/01 01:59:24;;;;;;;77.97;13.50;;;;;;;17.78;45.99;98073.50;4300456;33;33669;-91
2024/04/01 02:01:50;;;;;;;66.07;12.07;;;;;;;17.74;45.88;98087.59;4291424;33;34891;-90
2024/04/01 02:04:17;;;;;;;69.15;11.55;;;;;;;17.75;46.34;98078.84;4301148;33;35082;-90
2024/04/01 02:06:43;;;;;;;84.37;13.25;;;;;;;17.73;46.70;98086.75;4298700;33;32781;-90
2024/04/01 02:09:11;;;;;;;73.87;12.88;;;;;;;17.93;45.40;98087.87;4300082;33;34377;-92
2024/04/01 02:11:38;;;;;;;73.15;13.43;;;;;;;17.85;45.31;98080.28;4292217;33;33762;-90
2024/04/01 02:14:05;;;;;;;92.97;14.07;;;;;;;17.88;45.24;98085.41;4297284;33;35022;-89
2024/04/01 02:16:32;;;;;;;67.82;13.02;;;;;;;17.80;45.67;98087.41;4292945;33;33972;-90
2024/04/01 02:18:59;;;;;;;68.32;12.73;;;;;;;17.88;45.58;98085.41;4281092;33;33185;-90
2024/04/01 02:21:26;;;;;;;74.60;13.40;;;;;;;17.74;45.66;98077.12;4303677;33;33512;-91
2024/04/01 02:23:52;;;;;;;72.55;13.40;;;;;;;17.80;44.84;98087.41;4304645;33;34812;-91
2024/04/01 02:26:21;;;;;;;70.80;12.20;;;;;;;17.72;45.78;98089.41;4290851;33;33989;-90
2024/04/01 02:28:49;;;;;;;64.03;12.77;;;;;;;17.69;45.26;98094.75;4307440;33;32831;-91
2024/04/01 02:31:17;;;;;;;81.78;15.05;;;;;;;17.90;44.65;98098.47;4298964;33;34115;-90
2024/04/01 02:33:44;;;;;;;64.45;13.65;;;;;;;18.07;44.43;98098.75;4296402;33;34117;-90
2024/04/01 02:36:11;;;;;;;83.32;14.82;;;;;;;17.94;44.84;98102.69;4295442;33;33611;-93
2024/04/01 02:38:40;;;;;;;76.05;14.65;;;;;;;17.97;45.13;98099.97;4301222;33;33144;-91
2024/04/01 02:41:07;;;;;;;70.62;12.52;;;;;;;17.77;44.81;98100.66;4303678;33;33881;-91
2024/04/01 02:43:33;;;;;;;68.80;13.30;;;;;;;17.65;45.11;98109.75;4303955;33;34042;-92
2024/04/01 02:46:00;;;;;;;69.15;13.25;;;;;;;17.70;45.36;98094.72;4292744;33;32204;-92
2024/04/01 02:48:27;;;;;;;80.20;13.70;;;;;;;17.69;45.41;98095.63;4293533;33;33189;-91
2024/04/01 02:50:53;;;;;;;77.85;13.13;;;;;;;17.77;45.23;98087.53;4301062;33;33504;-92
2024/04/01 02:53:20;;;;;;;60.53;12.73;;;;;;;17.40;46.12;98075.59;4293926;33;35875;-92
2024/04/01 02:55:46;;;;;;;75.10;12.98;;;;;;;17.68;45.08;98072.91;4316755;33;33530;-92
2024/04/01 02:58:13;;;;;;;68.22;12.85;;;;;;;17.72;44.80;98084.16;4318501;33;33635;-91
2024/04/01 03:00:45;;;;;;;72.07;13.52;;;;;;;17.60;45.43;98081.94;4304409;33;34948;-91
2024/04/01 03:03:13;;;;;;;72.20;14.32;;;;;;;17.41;46.02;98089.56;4304654;33;34891;-93
2024/04/01 03:05:39;;;;;;;79.30;13.62;;;;;;;17.77;45.46;98066.56;4303683;33;34171;-91
2024/04/01 03:08:07;;;;;;;81.00;13.73;;;;;;;17.56;47.10;98065.47;4276721;33;34080;-91
2024/04/01 03:10:35;;;;;;;74.57;14.15;;;;;;;17.60;45.48;98061.00;4291632;33;33756;-91
2024/04/01 03:13:06;;;;;;;70.68;13.27;;;;;;;17.55;45.22;98061.16;4304375;33;33483;-90
2024/04/01 03:15:34;;;;;;;72.30;13.50;;;;;;;17.56;45.79;98069.88;4292469;33;32610;-91
2024/04/01 03:18:01;;;;;;;68.62;12.68;;;;;;;17.47;45.30;98065.78;4309881;33;34505;-90
2024/04/01 03:20:34;;;;;;;67.62;13.75;;;;;;;17.45;45.67;98068.44;4295693;33;33696;-94
2024/04/01 03:23:01;;;;;;;72.82;13.25;;;;;;;17.54;45.18;98064.69;4305601;33;34255;-90
2024/04/01 03:25:28;;;;;;;79.53;14.82;;;;;;;17.54;45.96;98064.69;4305338;33;34037;-91
2024/04/01 03:27:54;;;;;;;73.55;13.95;;;;;;;17.64;45.87;98065.22;4291991;33;32992;-90
2024/04/01 03:30:22;;;;;;;63.22;13.98;;;;;;;17.68;44.99;98069.44;4306000;33;34191;-92
2024/04/01 03:32:48;;;;;;;69.85;13.23;;;;;;;17.66;46.45;98066.03;4291791;33;33968;-90
2024/04/01 03:35:16;;;;;;;57.67;11.50;;;;;;;17.50;46.13;98069.16;4299382;33;33640;-91
2024/04/01 03:37:42;;;;;;;71.57;13.45;;;;;;;17.42;47.45;98070.28;4296477;33;33981;-92
2024/04/01 03:40:09;;;;;;;69.68;14.93;;;;;;;17.45;45.65;98070.22;4304612;33;33592;-92
2024/04/01 03:42:36;;;;;;;61.22;12.30;;;;;;;17.26;46.76;98075.19;4304377;33;34148;-91
2024/04/01 03:45:06;;;;;;;75.15;13.88;;;;;;;17.60;44.32;98066.22;4298516;33;32702;-91
2024/04/01 03:47:33;;;;;;;77.07;12.75;;;;;;;17.55;45.77;98070.78;4298993;33;34373;-91
2024/04/01 03:50:00;;;;;;;60.70;13.15;;;;;;;17.30;47.79;98076.78;4290341;33;33863;-92
2024/04/01 03:52:27;;;;;;;78.47;13.95;;;;;;;17.38;47.13;98064.31;4288959;33;34101;-91
2024/04/01 03:54:53;;;;;;;65.28;11.48;;;;;;;17.31;46.14;98057.53;4288752;33;34537;-94
2024/04/01 03:57:20;;;;;;;72.20;12.70;;;;;;;17.62;45.30;98060.03;4287589;33;32942;-91
2024/04/01 03:59:46;;;;;;;77.25;14.70;;;;;;;17.41;43.53;98051.09;4294448;33;34162;-91
2024/04/01 04:02:13;;;;;;;67.07;13.20;;;;;;;17.54;43.24;98064.69;4303707;33;33018;-92
2024/04/01 04:04:40;;;;;;;60.60;12.82;;;;;;;17.34;45.22;98052.22;4304000;33;33952;-90
2024/04/01 04:07:06;;;;;;;61.83;12.35;;;;;;;17.37;43.07;98039.00;4291783;33;33741;-90
2024/04/01 04:09:33;;;;;;;63.70;11.65;;;;;;;17.55;42.26;98026.22;4303606;33;33877;-89
2024/04/01 04:12:00;;;;;;;62.40;12.98;;;;;;;17.57;41.83;98022.62;4291637;33;35215;-92
2024/04/01 04:14:26;;;;;;;60.88;11.80;;;;;;;17.66;41.71;98018.84;4299238;33;33885;-92
2024/04/01 04:16:53;;;;;;;65.90;12.00;;;;;;;17.77;41.40;98045.59;4298536;33;34345;-94
2024/04/01 04:19:29;;;;;;;71.15;12.18;;;;;;;17.77;41.29;98028.97;4301536;33;34728;-91
2024/04/01 04:21:56;;;;;;;50.28;11.38;;;;;;;17.97;41.17;98048.38;4301928;33;34158;-91
2024/04/01 04:24:25;;;;;;;65.75;13.02;;;;;;;17.83;41.01;98047.13;4298978;33;34526;-91
2024/04/01 04:26:52;;;;;;;66.07;11.43;;;;;;;18.07;40.75;98048.03;4308677;33;33594;-92
2024/04/01 04:29:18;;;;;;;69.37;13.77;;;;;;;18.19;40.30;98047.63;4290718;33;33638;-92
2024/04/01 04:31:56;;;;;;;55.33;10.05;;;;;;;18.05;40.51;98045.47;4283487;33;34470;-93
2024/04/01 04:34:23;;;;;;;58.65;11.85;;;;;;;18.36;40.65;98037.34;4283876;33;34567;-91
2024/04/01 04:36:50;;;;;;;55.35;11.90;;;;;;;18.36;40.88;98033.87;4299099;33;34086;-90
2024/04/01 04:39:19;;;;;;;55.95;12.40;;;;;;;18.23;41.57;98038.72;4297096;33;33925;-90
2024/04/01 04:41:46;;;;;;;71.18;12.93;;;;;;;18.26;41.17;98033.38;4301334;33;34989;-90
2024/04/01 04:44:13;;;;;;;76.75;11.32;;;;;;;18.35;41.11;98042.66;4294318;33;34820;-91
2024/04/01 04:46:39;;;;;;;50.42;12.40;;;;;;;18.28;41.04;98041.19;4302179;33;33558;-91
2024/04/01 04:49:06;;;;;;;63.95;13.02;;;;;;;18.35;41.12;98050.53;4296727;33;33968;-90
2024/04/01 04:51:33;;;;;;;68.00;11.80;;;;;;;18.02;42.27;98049.97;4301512;33;33408;-90
2024/04/01 04:54:00;;;;;;;56.85;10.35;;;;;;;18.05;41.68;98049.87;4297705;33;34660;-91
2024/04/01 04:56:27;;;;;;;51.35;9.85;;;;;;;17.98;42.74;98055.31;4304310;33;33259;-90
2024/04/01 04:58:53;;;;;;;66.07;11.70;;;;;;;18.01;43.51;98058.75;4304000;33;34553;-92
2024/04/01 05:01:20;;;;;;;64.97;12.23;;;;;;;18.20;41.22;98054.56;4306884;33;33562;-90
2024/04/01 05:03:47;;;;;;;49.63;10.75;;;;;;;18.08;42.83;98057.66;4317049;33;34043;-92
2024/04/01 05:06:14;;;;;;;65.18;12.52;;;;;;;18.33;42.02;98060.22;4308829;33;33373;-92
2024/04/01 05:08:40;;;;;;;62.75;11.57;;;;;;;18.07;42.62;98059.41;4301700;33;33583;-93
2024/04/01 05:11:07;;;;;;;49.60;11.77;;;;;;;18.11;43.32;98065.41;4302310;33;33751;-93
2024/04/01 05:13:34;;;;;;;53.70;10.10;;;;;;;17.85;42.89;98064.53;4301440;33;34010;-90
2024/04/01 05:16:03;;;;;;;55.03;9.95;;;;;;;17.98;41.79;98063.19;4296833;33;34237;-91
2024/04/01 05:18:29;;;;;;;53.05;9.90;;;;;;;18.07;41.48;98058.53;4294362;33;34081;-89
2024/04/01 05:20:57;;;;;;;47.47;10.27;;;;;;;18.10;41.49;98063.66;4301688;33;34845;-90
2024/04/01 05:23:23;;;;;;;57.17;11.45;;;;;;;17.95;41.76;98052.81;4301100;33;33526;-90
2024/04/01 05:25:50;;;;;;;49.22;10.43;;;;;;;18.03;41.62;98051.69;4301742;33;34229;-91
2024/04/01 05:28:17;;;;;;;52.72;10.75;;;;;;;18.17;41.33;98041.56;4289841;33;33886;-90
2024/04/01 05:30:43;;;;;;;55.88;10.00;;;;;;;18.11;41.64;98033.94;4288158;33;34174;-89
2024/04/01 05:33:12;;;;;;;54.33;9.50;;;;;;;18.19;41.47;98031.88;4301093;33;34588;-90
2024/04/01 05:35:39;;;;;;;58.67;10.05;;;;;;;18.09;41.24;98036.59;4287715;33;34132;-88
2024/04/01 05:38:05;;;;;;;47.03;9.68;;;;;;;18.02;41.42;98045.59;4294450;33;34796;-89
2024/04/01 05:40:32;;;;;;;47.25;9.25;;;;;;;18.28;41.09;98036.78;4294968;33;34093;-90
2024/04/01 05:42:59;;;;;;;50.72;10.18;;;;;;;18.27;40.96;98019.34;4300341;33;34078;-88
2024/04/01 05:45:25;;;;;;;49.67;9.77;;;;;;;17.98;41.64;98026.47;4301445;33;33598;-88
2024/04/01 05:47:52;;;;;;;63.70;9.80;;;;;;;18.04;41.60;98027.19;4294253;33;33627;-89
2024/04/01 05:50:19;;;;;;;59.72;10.48;;;;;;;18.09;41.40;98030.50;4301478;33;34712;-89
2024/04/01 05:52:46;;;;;;;45.10;10.35;;;;;;;17.95;42.02;98031.81;4298905;33;34388;-89
2024/04/01 05:55:13;;;;;;;45.35;9.65;;;;;;;18.01;41.81;98033.38;4291786;33;33569;-89
2024/04/01 05:57:39;;;;;;;56.15;10.98;;;;;;;18.11;41.51;98039.19;4305801;33;33982;-89
2024/04/01 06:00:08;;;;;;;66.45;10.55;;;;;;;18.38;41.45;98032.94;4292061;33;33949;-88
2024/04/01 06:02:38;;;;;;;51.75;9.60;;;;;;;18.30;41.32;98034.13;4316017;33;34908;-88
2024/04/01 06:05:05;;;;;;;55.72;9.75;;;;;;;18.24;41.77;98037.81;4302615;33;34584;-88
2024/04/01 06:07:32;;;;;;;51.58;9.82;;;;;;;18.07;42.09;98033.19;4289430;33;34929;-89
2024/04/01 06:09:59;;;;;;;52.13;9.27;;;;;;;17.99;42.32;98025.59;4287686;33;34804;-90
2024/04/01 06:12:27;;;;;;;53.20;9.77;;;;;;;18.41;41.40;98030.19;4300991;33;33830;-91
2024/04/01 06:14:54;;;;;;;41.80;8.88;;;;;;;18.10;42.75;98021.69;4281415;33;34275;-89
2024/04/01 06:17:20;;;;;;;55.67;10.35;;;;;;;18.20;42.19;98023.09;4315267;33;34462;-88
2024/04/01 06:19:48;;;;;;;52.42;10.48;;;;;;;18.18;41.99;98010.06;4301895;33;34012;-89
2024/04/01 06:22:15;;;;;;;60.47;10.25;;;;;;;18.34;41.78;98018.22;4315852;33;33823;-89
2024/04/01 06:24:41;;;;;;;51.50;9.88;;;;;;;18.20;42.22;98028.34;4315179;33;34384;-89
2024/04/01 06:27:09;;;;;;;37.92;9.95;;;;;;;18.36;42.19;98034.72;4305791;33;33735;-88
2024/04/01 06:29:38;;;;;;;45.28;9.82;;;;;;;18.35;41.89;98032.19;4309152;33;34136;-88
2024/04/01 06:32:04;;;;;;;38.10;8.20;;;;;;;18.52;41.81;98034.16;4300906;33;34558;-88
2024/04/01 06:34:31;;;;;;;45.88;8.27;;;;;;;18.34;41.94;98026.06;4300795;33;33109;-88
2024/04/01 06:36:57;;;;;;;47.60;10.82;;;;;;;18.18;42.55;98011.78;4301102;33;34700;-87
2024/04/01 06:39:24;;;;;;;51.20;8.32;;;;;;;18.38;42.01;98017.19;4296425;33;33880;-89
2024/04/01 06:41:51;;;;;;;48.25;9.68;;;;;;;18.43;42.29;98036.22;4299129;33;34173;-88
2024/04/01 06:44:18;;;;;;;47.17;9.48;;;;;;;18.50;42.18;98030.75;4294291;33;33684;-88
2024/04/01 06:46:44;;;;;;;60.33;10.27;;;;;;;18.53;41.72;98041.16;4315372;33;34140;-87
2024/04/01 06:49:11;;;;;;;46.47;8.90;;;;;;;18.69;41.73;98044.91;4311520;33;34926;-87
2024/04/01 06:51:37;;;;;;;51.72;10.55;;;;;;;18.94;41.33;98039.56;4298083;33;34521;-88
2024/04/01 06:54:04;;;;;;;53.45;11.63;;;;;;;19.09;40.76;98046.00;4308607;33;33219;-87
2024/04/01 06:56:31;;;;;;;51.15;10.20;;;;;;;19.12;41.54;98049.37;4299276;33;34111;-87
2024/04/01 06:58:58;;;;;;;52.20;9.20;;;;;;;19.09;40.96;98051.25;4295325;33;33886;-88
2024/04/01 07:01:25;;;;;;;51.97;9.93;;;;;;;18.87;41.21;98054.75;4290563;33;34386;-87
2024/04/01 07:03:52;;;;;;;50.08;9.55;;;;;;;19.05;41.20;98060.19;4274031;33;34103;-85
2024/04/01 07:06:18;;;;;;;46.25;9.18;;;;;;;19.19;41.40;98060.50;4293729;33;33878;-87
2024/04/01 07:08:45;;;;;;;49.10;9.80;;;;;;;19.10;41.03;98056.47;4305468;33;35188;-88
2024/04/01 07:11:12;;;;;;;63.05;10.45;;;;;;;19.43;40.91;98043.75;4315017;33;33910;-87
2024/04/01 07:13:38;;;;;;;49.00;9.35;;;;;;;19.33;40.72;98054.69;4314973;33;33378;-87
2024/04/01 07:16:05;;;;;;;44.78;8.82;;;;;;;19.32;40.44;98059.09;4314867;33;33871;-88
2024/04/01 07:18:35;;;;;;;56.85;9.63;;;;;;;19.30;40.83;98060.91;4301526;33;35077;-88
2024/04/01 07:21:03;;;;;;;45.47;9.10;;;;;;;19.47;40.78;98051.50;4314792;33;34628;-87
2024/04/01 07:23:29;;;;;;;50.35;9.05;;;;;;;19.41;40.83;98057.87;4302448;33;33478;-88
2024/04/01 07:25:56;;;;;;;54.22;9.48;;;;;;;19.58;40.59;98054.53;4308543;33;35015;-88
2024/04/01 07:28:22;;;;;;;51.50;10.07;;;;;;;19.66;40.60;98057.72;4300472;33;33831;-92
2024/04/01 07:30:49;;;;;;;69.05;10.57;;;;;;;19.88;41.14;98061.16;4276506;33;34091;-86
2024/04/01 07:33:16;;;;;;;61.70;11.07;;;;;;;20.05;40.91;98064.87;4302294;33;33508;-88
2024/04/01 07:35:42;;;;;;;57.72;10.98;;;;;;;20.17;39.92;98059.91;4285684;33;34609;-87
2024/04/01 07:38:09;;;;;;;57.20;10.77;;;;;;;20.30;39.36;98059.38;4302971;33;34011;-88
2024/04/01 07:40:36;;;;;;;52.70;10.68;;;;;;;20.44;39.37;98071.94;4292559;33;33943;-89
2024/04/01 07:43:02;;;;;;;60.80;11.50;;;;;;;20.69;38.76;98067.31;4302076;33;32824;-88
2024/04/01 07:45:29;;;;;;;63.53;10.25;;;;;;;20.74;38.83;98067.94;4292090;33;33649;-90
2024/04/01 07:47:56;;;;;;;61.15;11.52;;;;;;;20.67;38.84;98057.75;4310985;33;33891;-87
2024/04/01 07:50:22;;;;;;;51.78;9.52;;;;;;;20.99;37.71;98053.66;4309537;33;32519;-88
2024/04/01 07:52:49;;;;;;;63.15;11.63;;;;;;;21.11;37.27;98061.81;4302502;33;33617;-88
2024/04/01 07:55:16;;;;;;;53.78;10.77;;;;;;;21.27;37.53;98056.66;4295832;33;34878;-88
2024/04/01 07:57:42;;;;;;;69.40;10.80;;;;;;;21.27;37.36;98058.44;4284148;33;33344;-88
2024/04/01 08:00:09;;;;;;;67.87;12.23;;;;;;;21.46;36.71;98055.81;4311462;33;33785;-91
2024/04/01 08:02:37;;;;;;;62.20;12.63;;;;;;;21.55;36.78;98044.78;4298721;33;34469;-88
2024/04/01 08:05:05;;;;;;;62.67;13.13;;;;;;;21.67;36.25;98054.75;4302695;33;34697;-88
2024/04/01 08:07:32;;;;;;;59.13;10.75;;;;;;;21.89;36.12;98057.13;4303873;33;33786;-88
2024/04/01 08:09:59;;;;;;;72.03;12.95;;;;;;;22.04;35.82;98059.00;4294027;33;33804;-89
2024/04/01 08:12:25;;;;;;;73.85;11.40;;;;;;;22.20;35.63;98060.88;4293677;33;33583;-87
2024/04/01 08:14:52;;;;;;;70.85;13.85;;;;;;;22.40;35.06;98047.50;4293418;33;35968;-88
2024/04/01 08:17:18;;;;;;;72.68;13.82;;;;;;;22.54;34.05;98044.09;4306568;33;33714;-88
2024/04/01 08:19:47;;;;;;;74.93;12.82;;;;;;;22.82;33.41;98027.63;4316303;33;33604;-89
2024/04/01 08:22:15;;;;;;;74.32;12.85;;;;;;;22.79;33.59;98033.06;4316623;33;33476;-89
2024/04/01 08:24:41;;;;;;;71.40;12.98;;;;;;;22.79;34.11;98041.84;4316439;33;33753;-89
2024/04/01 08:27:09;;;;;;;69.80;12.88;;;;;;;22.82;34.25;98036.38;4316410;33;34890;-88
2024/04/01 08:29:36;;;;;;;76.93;12.30;;;;;;;22.88;33.95;98047.56;4316666;33;34714;-88
2024/04/01 08:32:02;;;;;;;75.00;15.35;;;;;;;23.00;33.35;98049.56;4316334;33;33399;-89
2024/04/01 08:34:29;;;;;;;67.75;12.82;;;;;;;23.23;33.54;98054.41;4316543;33;33976;-88
2024/04/01 08:36:56;;;;;;;88.25;13.52;;;;;;;23.07;33.15;98045.66;4316717;33;34882;-88
2024/04/01 08:39:22;;;;;;;80.93;13.93;;;;;;;23.13;32.64;98034.72;4316639;33;33042;-88
2024/04/01 08:41:51;;;;;;;84.87;14.23;;;;;;;23.36;32.43;98035.22;4316284;33;34485;-89
2024/04/01 08:44:19;;;;;;;73.78;13.68;;;;;;;23.66;32.34;98041.41;4316489;33;33962;-89
2024/04/01 08:46:48;;;;;;;72.43;12.37;;;;;;;23.92;32.68;98052.25;4303202;33;34542;-88
2024/04/01 08:49:15;;;;;;;95.62;14.57;;;;;;;24.23;31.72;98041.53;4316345;33;33973;-89
2024/04/01 08:51:42;;;;;;;67.87;14.20;;;;;;;24.18;31.66;98038.31;4303208;33;33508;-88
2024/04/01 08:54:11;;;;;;;83.57;12.77;;;;;;;24.14;31.22;98044.75;4316697;33;33974;-88
2024/04/01 08:56:40;;;;;;;60.75;11.90;;;;;;;23.88;31.49;98046.28;4316238;33;33776;-89
2024/04/01 08:59:07;;;;;;;86.18;13.05;;;;;;;24.10;31.69;98051.16;4316428;33;33698;-89
2024/04/01 09:01:34;;;;;;;75.12;12.37;;;;;;;24.17;31.98;98052.50;4291187;33;33749;-89
2024/04/01 09:04:02;;;;;;;98.75;16.02;;;;;;;24.27;32.02;98048.34;4302881;33;35031;-88
2024/04/01 09:06:29;;;;;;;87.53;14.55;;;;;;;24.37;32.01;98037.19;4316398;33;35160;-88
2024/04/01 09:08:56;;;;;;;64.68;12.43;;;;;;;24.38;31.72;98042.37;4316343;33;34045;-89
2024/04/01 09:11:25;;;;;;;69.72;12.68;;;;;;;24.34;31.67;98032.06;4316060;33;34006;-88
2024/04/01 09:13:52;;;;;;;71.37;13.57;;;;;;;24.36;31.46;98036.34;4303065;33;34465;-88
2024/04/01 09:16:28;;;;;;;73.93;13.48;;;;;;;24.33;31.06;98023.28;4316455;33;33700;-88
2024/04/01 09:19:01;;;;;;;78.12;13.95;;;;;;;24.47;31.20;98025.09;4303246;33;34137;-88
2024/04/01 09:21:27;;;;;;;90.03;13.65;;;;;;;24.73;31.41;98015.53;4303947;33;33507;-89
2024/04/01 09:23:54;;;;;;;74.70;12.80;;;;;;;24.56;31.31;98021.91;4316055;33;34692;-88
2024/04/01 09:26:20;;;;;;;78.80;13.00;;;;;;;24.75;32.24;98018.94;4316369;33;34003;-89
2024/04/01 09:28:47;;;;;;;77.55;14.23;;;;;;;24.75;31.19;98021.59;4316160;33;34029;-88
2024/04/01 09:31:13;;;;;;;74.72;14.98;;;;;;;25.15;30.58;98033.16;4316340;33;33929;-88
2024/04/01 09:33:40;;;;;;;60.20;12.80;;;;;;;25.12;30.53;98025.44;4316244;33;34001;-88
2024/04/01 09:36:07;;;;;;;91.80;14.38;;;;;;;25.08;29.92;98017.72;4316348;33;34932;-88
2024/04/01 09:38:34;;;;;;;86.18;14.25;;;;;;;24.93;31.16;98031.03;4316256;33;32638;-88
2024/04/01 09:41:01;;;;;;;81.97;14.18;;;;;;;25.35;29.63;98020.44;4302873;33;33620;-88
2024/04/01 09:43:32;;;;;;;91.82;12.77;;;;;;;25.20;30.49;98025.78;4302817;33;33918;-88
2024/04/01 09:45:59;;;;;;;82.88;15.10;;;;;;;25.19;30.16;98021.44;4315846;33;34069;-88
2024/04/01 09:48:27;;;;;;;79.65;15.15;;;;;;;25.77;29.46;98024.69;4302834;33;34676;-88
2024/04/01 09:50:55;;;;;;;77.25;13.88;;;;;;;25.62;29.90;98023.91;4316538;33;33181;-88
2024/04/01 09:53:23;;;;;;;73.00;14.05;;;;;;;25.60;29.86;98017.84;4315126;33;34107;-88
2024/04/01 09:56:11;;;;;;;79.82;14.05;;;;;;;25.66;30.64;98014.78;4316113;33;35069;-89
2024/04/01 09:59:06;;;;;;;81.93;15.90;;;;;;;25.93;28.72;98000.62;4302503;33;33462;-89
2024/04/01 10:01:49;;;;;;;89.72;13.93;;;;;;;26.04;28.79;97986.59;4316138;33;33985;-88
2024/04/01 10:04:25;;;;;;;79.78;15.20;;;;;;;25.99;28.51;98000.22;4316277;33;34124;-88
2024/04/01 10:07:11;;;;;;;79.20;14.98;;;;;;;26.06;28.16;97998.81;4315893;33;33539;-90
2024/04/01 10:10:05;;;;;;;101.78;17.45;;;;;;;26.10;28.26;98002.09;4302730;33;34790;-88
2024/04/01 10:12:55;;;;;;;77.68;16.10;;;;;;;26.16;28.41;97999.03;4315649;33;33097;-88
2024/04/01 10:15:46;;;;;;;89.45;15.95;;;;;;;25.85;28.28;97998.50;4315943;33;34122;-88
2024/04/01 10:18:12;;;;;;;86.07;14.50;;;;;;;25.91;28.72;97983.94;4302504;33;34129;-88
2024/04/01 10:21:01;;;;;;;86.53;14.90;;;;;;;26.08;27.80;97978.31;4315729;33;33933;-87
2024/04/01 10:23:30;;;;;;;92.10;15.77;;;;;;;26.10;28.44;97973.75;4315888;33;33843;-88
2024/04/01 10:26:20;;;;;;;82.32;14.57;;;;;;;26.11;28.24;97967.50;4315470;33;33128;-87
2024/04/01 10:29:15;;;;;;;89.87;15.07;;;;;;;26.59;27.74;97972.97;4315855;33;33926;-89
2024/04/01 10:32:09;;;;;;;98.25;16.60;;;;;;;26.37;28.54;97978.09;4302109;33;33718;-88
2024/04/01 10:34:47;;;;;;;79.32;13.55;;;;;;;26.27;28.79;97969.06;4302580;33;33557;-88
2024/04/01 10:37:47;;;;;;;83.37;15.98;;;;;;;26.35;29.03;97969.38;4315567;33;34806;-88
2024/04/01 10:40:42;;;;;;;89.22;12.93;;;;;;;26.62;29.04;97958.63;4315389;33;34448;-88
2024/04/01 10:43:12;;;;;;;82.03;15.55;;;;;;;26.34;29.44;97952.59;4302500;33;34741;-88
2024/04/01 10:45:50;;;;;;;71.53;12.75;;;;;;;26.58;28.62;97944.69;4315532;33;33554;-88
2024/04/01 10:48:25;;;;;;;89.30;15.20;;;;;;;26.92;28.66;97928.94;4315319;33;34589;-87
2024/04/01 10:51:01;;;;;;;79.83;14.70;;;;;;;26.44;27.94;97934.16;4315390;33;34265;-90
2024/04/01 10:53:33;;;;;;;81.22;15.52;;;;;;;26.73;28.08;97921.47;4315408;33;33961;-89
2024/04/01 10:56:25;;;;;;;74.35;13.52;;;;;;;26.41;28.38;97915.81;4299070;33;34487;-89
2024/04/01 10:59:25;;;;;;;100.62;16.40;;;;;;;26.54;28.64;97919.28;4277701;33;33791;-90
2024/04/01 11:02:17;;;;;;;88.57;14.75;;;;;;;26.72;28.46;97913.63;4296198;33;35091;-91
2024/04/01 11:05:21;;;;;;;81.45;14.52;;;;;;;26.74;28.06;97907.19;4301193;33;34589;-86
2024/04/01 11:08:36;;;;;;;87.15;15.75;;;;;;;26.80;28.38;97916.56;4302309;33;33528;-89
2024/04/01 11:11:41;;;;;;;86.37;14.77;;;;;;;26.98;28.02;97909.03;4273479;33;33655;-86
2024/04/01 11:14:08;;;;;;;91.72;18.25;;;;;;;27.06;27.75;97912.81;4284581;33;33852;-86
2024/04/01 11:16:37;;;;;;;85.50;15.75;;;;;;;26.97;28.16;97891.38;4302257;33;34843;-88
2024/04/01 11:19:23;;;;;;;86.97;14.80;;;;;;;26.89;26.70;97890.13;4315486;33;34440;-87
2024/04/01 11:21:59;;;;;;;85.10;15.07;;;;;;;26.81;27.43;97875.69;4314722;33;33855;-86
2024/04/01 11:24:26;;;;;;;89.57;17.62;;;;;;;26.81;26.39;97875.69;4315840;33;34862;-87
2024/04/01 11:26:54;;;;;;;97.68;16.77;;;;;;;27.04;25.53;97872.16;4315517;33;34578;-87
2024/04/01 11:29:48;;;;;;;87.40;15.98;;;;;;;27.15;26.02;97858.09;4315871;33;33577;-87